Time;durP1;ratioP1;P1;durP2;ratioP2;P2;SDS_P1;SDS_P2;PMS_P1;PMS_P2;Temp;Humidity;BMP_temperature;BMP_pressure;BME280_temperature;BME280_humidity;BME280_pressure;Samples;Min_cycle;Max_cycle;Signal;HPM_P1;HPM_P2
2024/03/26 00:00:16;;;;;;;;;;;7.50;52.10;;;;;;5073598;28;20453;-70
2024/03/26 00:02:42;;;;;;;;;;;7.50;52.40;;;;;;5074127;28;20365;-75
2024/03/26 00:05:08;;;;;;;;;;;7.50;52.70;;;;;;5074050;28;19951;-70
2024/03/26 00:07:35;;;;;;;;;;;7.40;52.20;;;;;;5057303;28;19952;-69
2024/03/26 00:10:01;;;;;;;;;;;7.40;53.00;;;;;;5074048;28;19935;-75
2024/03/26 00:12:27;;;;;;;;;;;7.40;52.50;;;;;;5074473;28;19943;-75
2024/03/26 00:14:53;;;;;;;;;;;7.50;53.70;;;;;;5075090;28;19912;-70
2024/03/26 00:17:19;;;;;;;;;;;7.40;53.80;;;;;;5074936;28;20365;-76
2024/03/26 00:19:44;;;;;;;;;;;7.30;53.90;;;;;;5074221;28;19938;-70
2024/03/26 00:22:10;;;;;;;;;;;7.30;53.70;;;;;;5075422;28;20339;-76
2024/03/26 00:24:36;;;;;;;;;;;7.40;53.80;;;;;;5075141;28;20357;-76
2024/03/26 00:27:02;;;;;;;;;;;7.30;53.70;;;;;;5074873;28;19928;-70
2024/03/26 00:29:28;;;;;;;;;;;7.20;53.50;;;;;;5073469;28;20018;-76
2024/03/26 00:31:54;;;;;;;;;;;7.20;53.50;;;;;;5073240;28;19920;-75
2024/03/26 00:34:20;;;;;;;;;;;7.20;53.70;;;;;;5073428;28;19927;-76
2024/03/26 00:36:46;;;;;;;;;;;7.20;53.80;;;;;;5073257;28;20348;-76
2024/03/26 00:39:11;;;;;;;;;;;7.20;53.50;;;;;;5073711;28;20381;-70
2024/03/26 00:41:37;;;;;;;;;;;7.10;53.60;;;;;;5056461;28;20397;-70
2024/03/26 00:44:03;;;;;;;;;;;7.10;53.80;;;;;;5057061;28;19923;-70
2024/03/26 00:46:29;;;;;;;;;;;7.00;54.00;;;;;;5075106;28;19913;-69
2024/03/26 00:48:55;;;;;;;;;;;7.00;54.20;;;;;;5057222;28;19912;-70
2024/03/26 00:51:21;;;;;;;;;;;7.00;54.40;;;;;;5056660;28;20004;-69
2024/03/26 00:53:47;;;;;;;;;;;6.90;54.90;;;;;;5074465;28;20457;-76
2024/03/26 00:56:13;;;;;;;;;;;6.90;55.70;;;;;;5074567;28;19958;-75
2024/03/26 00:58:39;;;;;;;;;;;6.80;54.90;;;;;;5073194;28;19917;-69
2024/03/26 01:01:23;;;;;;;;;;;6.70;55.10;;;;;;5073299;28;19960;-69
2024/03/26 01:03:51;;;;;;;;;;;6.70;54.70;;;;;;5074710;28;19924;-72
2024/03/26 01:06:17;;;;;;;;;;;6.70;54.90;;;;;;5073397;28;19912;-70
2024/03/26 01:08:43;;;;;;;;;;;6.60;55.10;;;;;;5073632;28;19959;-75
2024/03/26 01:11:09;;;;;;;;;;;6.60;55.50;;;;;;5074429;28;20019;-75
2024/03/26 01:13:35;;;;;;;;;;;6.50;55.50;;;;;;5074859;28;19929;-71
2024/03/26 01:16:04;;;;;;;;;;;6.50;55.60;;;;;;5074481;28;20388;-70
2024/03/26 01:18:30;;;;;;;;;;;6.50;55.70;;;;;;5074536;28;19920;-75
2024/03/26 01:20:56;;;;;;;;;;;6.50;56.00;;;;;;5056210;28;19917;-70
2024/03/26 01:23:21;;;;;;;;;;;6.50;55.60;;;;;;5073607;28;19931;-70
2024/03/26 01:25:47;;;;;;;;;;;6.50;55.90;;;;;;5074306;28;19912;-70
2024/03/26 01:28:13;;;;;;;;;;;6.40;55.40;;;;;;5074494;28;19920;-76
2024/03/26 01:30:39;;;;;;;;;;;6.50;55.10;;;;;;5073958;28;20377;-76
2024/03/26 01:33:05;;;;;;;;;;;6.40;55.00;;;;;;5072911;28;20369;-75
2024/03/26 01:35:31;;;;;;;;;;;6.40;55.00;;;;;;5072959;28;20003;-71
2024/03/26 01:37:56;;;;;;;;;;;6.40;55.00;;;;;;5056371;28;19951;-76
2024/03/26 01:40:23;;;;;;;;;;;6.50;55.10;;;;;;5073692;28;20121;-70
2024/03/26 01:42:50;;;;;;;;;;;6.40;54.80;;;;;;5074424;28;20422;-69
2024/03/26 01:45:16;;;;;;;;;;;6.40;54.60;;;;;;5072823;28;20280;-70
2024/03/26 01:47:42;;;;;;;;;;;6.40;55.00;;;;;;5055893;28;19920;-75
2024/03/26 01:50:10;;;;;;;;;;;6.50;55.00;;;;;;5072840;28;19959;-70
2024/03/26 01:52:36;;;;;;;;;;;6.40;54.80;;;;;;5072059;28;20003;-70
2024/03/26 01:55:04;;;;;;;;;;;6.40;54.90;;;;;;5055321;28;20274;-75
2024/03/26 01:57:30;;;;;;;;;;;6.40;55.10;;;;;;5071556;28;19921;-70
2024/03/26 01:59:56;;;;;;;;;;;6.40;54.80;;;;;;5072047;28;19912;-74
2024/03/26 02:02:22;;;;;;;;;;;6.30;55.00;;;;;;5071688;28;19920;-70
2024/03/26 02:04:48;;;;;;;;;;;6.30;54.70;;;;;;5071453;28;19912;-70
2024/03/26 02:07:15;;;;;;;;;;;6.30;55.30;;;;;;5072633;28;20361;-69
2024/03/26 02:09:41;;;;;;;;;;;6.30;55.30;;;;;;5072443;28;20432;-70
2024/03/26 02:12:07;;;;;;;;;;;6.20;55.00;;;;;;5073305;28;19931;-69
2024/03/26 02:14:32;;;;;;;;;;;6.20;55.70;;;;;;5072212;28;20347;-70
2024/03/26 02:16:58;;;;;;;;;;;6.20;56.00;;;;;;5072033;28;19981;-71
2024/03/26 02:19:25;;;;;;;;;;;6.20;57.00;;;;;;5071833;28;19999;-75
2024/03/26 02:21:52;;;;;;;;;;;6.10;56.50;;;;;;5054280;28;20011;-75
2024/03/26 02:24:18;;;;;;;;;;;6.10;55.70;;;;;;5071286;28;19916;-75
2024/03/26 02:26:43;;;;;;;;;;;6.10;56.40;;;;;;5071163;28;19945;-76
2024/03/26 02:29:09;;;;;;;;;;;6.10;56.00;;;;;;5071895;28;19912;-69
2024/03/26 02:31:35;;;;;;;;;;;6.00;56.60;;;;;;5072670;28;19916;-70
2024/03/26 02:34:01;;;;;;;;;;;6.00;56.70;;;;;;5071729;28;19920;-70
2024/03/26 02:36:27;;;;;;;;;;;6.00;57.20;;;;;;5055067;28;19922;-69
2024/03/26 02:38:53;;;;;;;;;;;6.00;57.30;;;;;;5072992;28;20019;-75
2024/03/26 02:41:19;;;;;;;;;;;5.90;57.50;;;;;;5054366;28;19923;-70
2024/03/26 02:43:47;;;;;;;;;;;5.80;57.70;;;;;;5071722;28;19971;-69
2024/03/26 02:46:13;;;;;;;;;;;5.90;57.50;;;;;;5071710;28;19918;-70
2024/03/26 02:48:39;;;;;;;;;;;5.90;57.50;;;;;;5071746;28;20285;-70
2024/03/26 02:51:04;;;;;;;;;;;5.90;57.70;;;;;;5071913;28;20007;-70
2024/03/26 02:53:30;;;;;;;;;;;5.90;57.60;;;;;;5072809;28;19916;-75
2024/03/26 02:55:56;;;;;;;;;;;5.90;57.80;;;;;;5072545;28;19946;-71
2024/03/26 02:58:22;;;;;;;;;;;5.80;58.00;;;;;;5072238;28;19994;-71
2024/03/26 03:00:48;;;;;;;;;;;5.80;57.70;;;;;;5071439;28;19922;-69
2024/03/26 03:03:14;;;;;;;;;;;5.80;58.00;;;;;;5072039;28;19974;-75
2024/03/26 03:05:41;;;;;;;;;;;5.80;58.00;;;;;;5071145;28;19924;-70
2024/03/26 03:08:07;;;;;;;;;;;5.80;57.90;;;;;;5071103;28;19920;-70
2024/03/26 03:10:33;;;;;;;;;;;5.90;57.60;;;;;;5071675;28;19923;-75
2024/03/26 03:12:59;;;;;;;;;;;5.90;57.70;;;;;;5054523;28;20371;-70
2024/03/26 03:15:25;;;;;;;;;;;5.80;57.70;;;;;;5070877;28;20277;-76
2024/03/26 03:17:51;;;;;;;;;;;5.80;58.00;;;;;;5072141;28;19928;-75
2024/03/26 03:20:17;;;;;;;;;;;5.80;58.60;;;;;;5070534;28;20337;-75
2024/03/26 03:22:43;;;;;;;;;;;5.80;58.50;;;;;;5054262;28;19921;-70
2024/03/26 03:25:09;;;;;;;;;;;5.80;58.20;;;;;;5070861;28;19912;-69
2024/03/26 03:27:35;;;;;;;;;;;5.80;58.10;;;;;;5071378;28;19935;-75
2024/03/26 03:30:01;;;;;;;;;;;5.80;57.40;;;;;;5071052;28;19912;-74
2024/03/26 03:32:27;;;;;;;;;;;5.80;57.80;;;;;;5069906;28;19927;-70
2024/03/26 03:34:53;;;;;;;;;;;5.80;58.30;;;;;;5071763;28;19995;-76
2024/03/26 03:37:19;;;;;;;;;;;5.80;57.80;;;;;;5053429;28;19924;-70
2024/03/26 03:39:45;;;;;;;;;;;5.80;57.30;;;;;;5071867;28;20309;-75
2024/03/26 03:42:11;;;;;;;;;;;5.80;57.60;;;;;;5069604;28;19920;-75
2024/03/26 03:44:37;;;;;;;;;;;5.80;57.80;;;;;;5071436;28;19913;-69
2024/03/26 03:47:03;;;;;;;;;;;5.80;57.60;;;;;;5053923;28;20027;-70
2024/03/26 03:49:30;;;;;;;;;;;5.80;57.60;;;;;;5072269;28;19966;-69
2024/03/26 03:51:56;;;;;;;;;;;5.80;57.30;;;;;;5070438;28;19920;-70
2024/03/26 03:54:23;;;;;;;;;;;5.80;57.50;;;;;;5071721;28;20015;-75
2024/03/26 03:56:49;;;;;;;;;;;5.80;57.70;;;;;;5071158;28;19974;-70
2024/03/26 03:59:15;;;;;;;;;;;5.80;58.10;;;;;;5070086;28;20016;-76
2024/03/26 04:01:40;;;;;;;;;;;5.80;58.20;;;;;;5069466;28;19928;-75
2024/03/26 04:04:07;;;;;;;;;;;5.90;57.70;;;;;;5053691;28;19916;-75
2024/03/26 04:06:33;;;;;;;;;;;5.80;57.00;;;;;;5071181;28;20292;-70
2024/03/26 04:09:00;;;;;;;;;;;5.80;58.10;;;;;;5053297;28;19924;-70
2024/03/26 04:11:25;;;;;;;;;;;5.80;58.00;;;;;;5052620;28;20011;-70
2024/03/26 04:13:51;;;;;;;;;;;5.80;58.10;;;;;;5069825;28;19920;-76
2024/03/26 04:16:17;;;;;;;;;;;5.70;57.40;;;;;;5069908;28;19913;-74
2024/03/26 04:18:45;;;;;;;;;;;5.80;57.30;;;;;;5052968;28;20366;-76
2024/03/26 04:21:11;;;;;;;;;;;5.80;57.70;;;;;;5069401;28;19916;-75
2024/03/26 04:23:36;;;;;;;;;;;5.70;58.30;;;;;;5071660;28;20354;-70
2024/03/26 04:26:03;;;;;;;;;;;5.70;58.40;;;;;;5053067;28;19927;-71
2024/03/26 04:28:29;;;;;;;;;;;5.60;58.60;;;;;;5070050;28;19912;-75
2024/03/26 04:30:55;;;;;;;;;;;5.60;58.70;;;;;;5073364;28;19958;-74
2024/03/26 04:33:21;;;;;;;;;;;5.60;58.70;;;;;;5075335;28;20259;-70
2024/03/26 04:35:47;;;;;;;;;;;5.50;59.00;;;;;;5056596;28;19916;-75
2024/03/26 04:38:13;;;;;;;;;;;5.40;58.50;;;;;;5073561;28;19920;-75
2024/03/26 04:40:40;;;;;;;;;;;5.40;59.80;;;;;;5072962;28;20369;-70
2024/03/26 04:43:25;;;;;;;;;;;5.30;59.40;;;;;;5073484;28;19985;-69
2024/03/26 04:45:50;;;;;;;;;;;5.30;59.50;;;;;;5073174;28;19969;-75
2024/03/26 04:48:16;;;;;;;;;;;5.30;59.40;;;;;;5073429;28;19916;-70
2024/03/26 04:50:45;;;;;;;;;;;5.30;59.50;;;;;;5074046;28;20019;-69
2024/03/26 04:53:11;;;;;;;;;;;5.30;59.90;;;;;;5056605;28;20011;-75
2024/03/26 04:55:37;;;;;;;;;;;5.30;59.40;;;;;;5074148;28;20018;-70
2024/03/26 04:58:03;;;;;;;;;;;5.40;59.40;;;;;;5074202;28;19928;-75
2024/03/26 05:00:29;;;;;;;;;;;5.30;59.50;;;;;;5073810;28;19966;-75
2024/03/26 05:02:56;;;;;;;;;;;5.40;59.40;;;;;;5073155;28;20252;-70
2024/03/26 05:05:22;;;;;;;;;;;5.40;59.50;;;;;;5072949;28;20312;-70
2024/03/26 05:07:48;;;;;;;;;;;5.40;59.60;;;;;;5072798;28;19963;-70
2024/03/26 05:10:14;;;;;;;;;;;5.30;59.90;;;;;;5072358;28;19919;-75
2024/03/26 05:12:40;;;;;;;;;;;5.30;59.60;;;;;;5074000;28;20015;-70
2024/03/26 05:15:06;;;;;;;;;;;5.40;59.70;;;;;;5072785;28;19920;-70
2024/03/26 05:17:32;;;;;;;;;;;5.30;59.20;;;;;;5072540;28;19921;-75
2024/03/26 05:19:58;;;;;;;;;;;5.40;59.50;;;;;;5073986;28;19912;-70
2024/03/26 05:22:24;;;;;;;;;;;5.40;59.40;;;;;;5073798;28;19920;-70
2024/03/26 05:24:51;;;;;;;;;;;5.40;59.40;;;;;;5072546;28;19912;-69
2024/03/26 05:27:17;;;;;;;;;;;5.40;59.10;;;;;;5073804;28;20028;-69
2024/03/26 05:29:43;;;;;;;;;;;5.40;59.40;;;;;;5073693;28;19995;-70
2024/03/26 05:32:09;;;;;;;;;;;5.50;59.70;;;;;;5072027;28;19990;-75
2024/03/26 05:34:34;;;;;;;;;;;5.60;59.10;;;;;;5072789;28;19937;-75
2024/03/26 05:37:00;;;;;;;;;;;5.60;59.50;;;;;;5073456;28;20406;-75
2024/03/26 05:39:26;;;;;;;;;;;5.60;59.50;;;;;;5073452;28;20265;-74
2024/03/26 05:41:52;;;;;;;;;;;5.70;59.10;;;;;;5070504;28;20016;-70
2024/03/26 05:44:18;;;;;;;;;;;5.70;59.40;;;;;;5072031;28;20003;-75
2024/03/26 05:46:44;;;;;;;;;;;5.80;59.20;;;;;;5073403;28;20364;-75
2024/03/26 05:49:10;;;;;;;;;;;5.80;58.70;;;;;;5072084;28;20285;-70
2024/03/26 05:51:36;;;;;;;;;;;5.90;58.70;;;;;;5072745;28;19974;-70
2024/03/26 05:54:02;;;;;;;;;;;6.00;59.20;;;;;;5055105;28;19973;-69
2024/03/26 05:56:28;;;;;;;;;;;6.10;59.40;;;;;;5071722;28;19912;-75
2024/03/26 05:58:54;;;;;;;;;;;6.30;59.20;;;;;;5071665;28;19921;-75
2024/03/26 06:01:21;;;;;;;;;;;6.30;58.80;;;;;;5071526;28;19955;-75
2024/03/26 06:03:46;;;;;;;;;;;6.40;58.30;;;;;;5073075;28;20393;-76
2024/03/26 06:06:12;;;;;;;;;;;6.60;58.10;;;;;;5071666;28;19919;-70
2024/03/26 06:08:38;;;;;;;;;;;6.60;58.20;;;;;;5073255;28;19920;-70
2024/03/26 06:11:04;;;;;;;;;;;6.70;59.00;;;;;;5054438;28;19920;-75
2024/03/26 06:13:30;;;;;;;;;;;6.70;58.90;;;;;;5073271;28;19921;-70
2024/03/26 06:16:14;;;;;;;;;;;6.80;59.30;;;;;;5072826;28;19920;-71
2024/03/26 06:18:40;;;;;;;;;;;6.80;59.00;;;;;;5073083;28;19920;-74
2024/03/26 06:21:06;;;;;;;;;;;6.90;59.20;;;;;;5071048;28;19999;-75
2024/03/26 06:23:32;;;;;;;;;;;6.90;59.40;;;;;;5073072;28;20341;-75
2024/03/26 06:25:58;;;;;;;;;;;6.90;59.50;;;;;;5054660;28;19912;-75
2024/03/26 06:28:25;;;;;;;;;;;7.00;59.30;;;;;;5072897;28;19921;-70
2024/03/26 06:30:51;;;;;;;;;;;7.10;58.90;;;;;;5070626;28;19938;-75
2024/03/26 06:33:17;;;;;;;;;;;7.10;58.90;;;;;;5071482;28;19921;-70
2024/03/26 06:35:43;;;;;;;;;;;7.20;58.90;;;;;;5071114;28;19947;-70
2024/03/26 06:38:08;;;;;;;;;;;7.30;59.00;;;;;;5072527;28;20047;-70
2024/03/26 06:40:35;;;;;;;;;;;7.30;58.80;;;;;;5070570;28;19978;-75
2024/03/26 06:43:01;;;;;;;;;;;7.40;58.30;;;;;;5071312;28;19947;-75
2024/03/26 06:45:27;;;;;;;;;;;7.40;58.30;;;;;;5054047;28;19962;-70
2024/03/26 06:47:53;;;;;;;;;;;7.50;58.00;;;;;;5072631;28;20015;-75
2024/03/26 06:50:19;;;;;;;;;;;7.60;58.30;;;;;;5070559;28;19950;-76
2024/03/26 06:53:04;;;;;;;;;;;7.70;57.70;;;;;;5070705;28;19960;-70
2024/03/26 06:55:30;;;;;;;;;;;7.80;57.50;;;;;;5070414;28;19998;-76
2024/03/26 06:57:56;;;;;;;;;;;8.00;56.90;;;;;;5053909;28;20102;-75
2024/03/26 07:00:22;;;;;;;;;;;8.20;56.10;;;;;;5071582;28;19916;-70
2024/03/26 07:02:48;;;;;;;;;;;8.30;55.20;;;;;;5072090;28;19921;-76
2024/03/26 07:05:14;;;;;;;;;;;8.40;55.50;;;;;;5071874;28;19916;-76
2024/03/26 07:07:40;;;;;;;;;;;8.60;55.30;;;;;;5070666;28;20007;-75
2024/03/26 07:10:07;;;;;;;;;;;8.70;54.80;;;;;;5070251;28;20026;-70
2024/03/26 07:12:34;;;;;;;;;;;8.80;53.60;;;;;;5072070;28;20004;-70
2024/03/26 07:15:00;;;;;;;;;;;9.00;54.20;;;;;;5054060;28;19912;-76
2024/03/26 07:17:26;;;;;;;;;;;9.10;54.10;;;;;;5072022;28;19920;-70
2024/03/26 07:19:52;;;;;;;;;;;9.30;53.20;;;;;;5053856;28;19920;-76
2024/03/26 07:22:18;;;;;;;;;;;9.50;53.00;;;;;;5070076;28;19927;-75
2024/03/26 07:24:44;;;;;;;;;;;9.70;52.20;;;;;;5070321;28;19920;-75
2024/03/26 07:27:11;;;;;;;;;;;9.90;51.50;;;;;;5070413;28;20015;-76
2024/03/26 07:29:39;;;;;;;;;;;10.10;50.30;;;;;;5070286;28;19912;-70
2024/03/26 07:32:05;;;;;;;;;;;10.30;50.10;;;;;;5071205;28;19928;-76
2024/03/26 07:34:32;;;;;;;;;;;10.40;48.80;;;;;;5070280;28;20046;-70
2024/03/26 07:36:58;;;;;;;;;;;10.60;45.80;;;;;;5070190;28;19959;-75
2024/03/26 07:39:24;;;;;;;;;;;10.80;47.20;;;;;;5071466;28;20047;-70
2024/03/26 07:41:50;;;;;;;;;;;11.10;46.50;;;;;;5052866;28;20008;-75
2024/03/26 07:44:15;;;;;;;;;;;11.50;46.80;;;;;;5053359;28;20320;-76
2024/03/26 07:46:43;;;;;;;;;;;11.80;45.90;;;;;;5070090;28;20008;-69
2024/03/26 07:49:09;;;;;;;;;;;12.20;44.20;;;;;;5070188;28;19912;-75
2024/03/26 07:51:37;;;;;;;;;;;12.70;43.80;;;;;;5069870;28;19926;-70
2024/03/26 07:54:04;;;;;;;;;;;13.30;42.90;;;;;;5053439;28;20436;-70
2024/03/26 07:56:30;;;;;;;;;;;13.70;41.60;;;;;;5071277;28;19912;-75
2024/03/26 07:58:55;;;;;;;;;;;14.40;38.50;;;;;;5071103;28;20007;-75
2024/03/26 08:01:21;;;;;;;;;;;14.70;37.10;;;;;;5069581;28;20004;-75
2024/03/26 08:03:47;;;;;;;;;;;15.30;36.40;;;;;;5072162;28;19916;-76
2024/03/26 08:06:13;;;;;;;;;;;15.80;34.50;;;;;;5075260;28;20377;-74
2024/03/26 08:08:39;;;;;;;;;;;16.40;32.40;;;;;;5074192;28;19916;-70
2024/03/26 08:11:05;;;;;;;;;;;16.80;30.20;;;;;;5074850;28;19963;-75
2024/03/26 08:13:31;;;;;;;;;;;17.20;28.30;;;;;;5073762;28;19924;-70
2024/03/26 08:15:57;;;;;;;;;;;17.70;28.80;;;;;;5074067;28;20003;-73
2024/03/26 08:18:24;;;;;;;;;;;18.20;28.20;;;;;;5075437;28;19920;-70
2024/03/26 08:20:50;;;;;;;;;;;18.90;27.60;;;;;;5073205;28;19916;-75
2024/03/26 08:23:15;;;;;;;;;;;19.40;25.50;;;;;;5075336;28;19969;-75
2024/03/26 08:25:41;;;;;;;;;;;19.80;23.90;;;;;;5056735;28;19912;-71
2024/03/26 08:28:07;;;;;;;;;;;20.20;24.10;;;;;;5073828;28;20374;-70
2024/03/26 08:30:34;;;;;;;;;;;20.50;24.00;;;;;;5074242;28;20019;-75
2024/03/26 08:33:00;;;;;;;;;;;21.00;22.70;;;;;;5075158;28;20424;-70
2024/03/26 08:35:27;;;;;;;;;;;21.60;22.40;;;;;;5074664;28;19922;-71
2024/03/26 08:37:52;;;;;;;;;;;22.10;21.40;;;;;;5074841;28;19974;-75
2024/03/26 08:40:19;;;;;;;;;;;22.40;20.90;;;;;;5073053;28;19951;-74
2024/03/26 08:42:45;;;;;;;;;;;22.80;20.60;;;;;;5074925;28;19966;-75
2024/03/26 08:45:11;;;;;;;;;;;23.10;19.20;;;;;;5073228;28;20660;-70
2024/03/26 08:47:37;;;;;;;;;;;23.30;19.20;;;;;;5074823;28;20376;-75
2024/03/26 08:50:03;;;;;;;;;;;23.40;19.20;;;;;;5074395;28;20348;-74
2024/03/26 08:52:29;;;;;;;;;;;23.80;18.80;;;;;;5072929;28;19920;-70
2024/03/26 08:54:55;;;;;;;;;;;24.20;17.70;;;;;;5073157;28;20016;-75
2024/03/26 08:57:21;;;;;;;;;;;24.50;18.10;;;;;;5074019;28;19924;-75
2024/03/26 08:59:47;;;;;;;;;;;24.60;17.80;;;;;;5056525;28;20010;-71
2024/03/26 09:02:13;;;;;;;;;;;24.90;18.00;;;;;;5074088;28;19947;-71
2024/03/26 09:04:39;;;;;;;;;;;25.10;16.70;;;;;;5073066;28;20015;-71
2024/03/26 09:07:05;;;;;;;;;;;25.40;16.90;;;;;;5074008;28;20432;-70
2024/03/26 09:09:31;;;;;;;;;;;25.60;16.80;;;;;;5074250;28;20390;-74
2024/03/26 09:11:57;;;;;;;;;;;25.70;15.90;;;;;;5073601;28;19969;-75
2024/03/26 09:14:22;;;;;;;;;;;25.90;15.90;;;;;;5072377;28;19916;-70
2024/03/26 09:16:48;;;;;;;;;;;26.10;15.40;;;;;;5072777;28;20027;-74
2024/03/26 09:19:14;;;;;;;;;;;26.20;15.00;;;;;;5072648;28;20377;-70
2024/03/26 09:21:41;;;;;;;;;;;26.60;15.00;;;;;;5073421;28;20405;-70
2024/03/26 09:24:07;;;;;;;;;;;26.70;14.00;;;;;;5073792;28;20007;-71
2024/03/26 09:26:33;;;;;;;;;;;27.10;13.70;;;;;;5073744;28;19935;-73
2024/03/26 09:28:59;;;;;;;;;;;27.40;13.00;;;;;;5073737;28;20011;-74
2024/03/26 09:31:25;;;;;;;;;;;27.50;11.50;;;;;;5072109;28;19920;-71
2024/03/26 09:33:50;;;;;;;;;;;27.50;10.90;;;;;;5072388;28;19946;-71
2024/03/26 09:36:16;;;;;;;;;;;27.60;10.00;;;;;;5055585;28;19927;-70
2024/03/26 09:38:42;;;;;;;;;;;27.20;10.60;;;;;;5072430;28;19912;-74
2024/03/26 09:41:11;;;;;;;;;;;27.10;11.10;;;;;;5071681;28;19920;-74
2024/03/26 09:43:37;;;;;;;;;;;26.90;11.10;;;;;;5072271;28;20332;-71
2024/03/26 09:46:04;;;;;;;;;;;26.70;9.70;;;;;;5072277;28;19916;-74
2024/03/26 09:48:30;;;;;;;;;;;26.70;9.80;;;;;;5072248;28;19917;-75
2024/03/26 09:50:58;;;;;;;;;;;26.90;10.10;;;;;;5071626;28;20011;-75
2024/03/26 09:53:25;;;;;;;;;;;27.20;10.40;;;;;;5073609;28;19916;-75
2024/03/26 09:55:52;;;;;;;;;;;27.20;10.00;;;;;;5073347;28;19939;-75
2024/03/26 09:58:18;;;;;;;;;;;27.30;9.50;;;;;;5054995;28;19921;-70
2024/03/26 10:00:47;;;;;;;;;;;27.30;9.30;;;;;;5071546;28;19951;-71
2024/03/26 10:03:13;;;;;;;;;;;27.50;8.00;;;;;;5072111;28;19955;-71
2024/03/26 10:05:39;;;;;;;;;;;27.60;8.60;;;;;;5071739;28;20361;-75
2024/03/26 10:08:05;;;;;;;;;;;27.80;8.90;;;;;;5071769;28;20011;-73
2024/03/26 10:10:31;;;;;;;;;;;28.00;9.20;;;;;;5072292;28;19924;-70
2024/03/26 10:12:57;;;;;;;;;;;28.00;10.00;;;;;;5073123;28;20274;-71
2024/03/26 10:15:25;;;;;;;;;;;28.00;9.90;;;;;;5072575;28;19939;-75
2024/03/26 10:17:51;;;;;;;;;;;28.00;9.80;;;;;;5071606;28;20560;-71
2024/03/26 10:20:17;;;;;;;;;;;28.00;9.10;;;;;;5071130;28;20223;-75
2024/03/26 10:22:43;;;;;;;;;;;27.80;8.50;;;;;;5073051;28;19958;-72
2024/03/26 10:25:10;;;;;;;;;;;27.60;9.20;;;;;;5071024;28;19912;-75
2024/03/26 10:27:37;;;;;;;;;;;27.50;9.00;;;;;;5070730;28;19978;-70
2024/03/26 10:30:08;;;;;;;;;;;27.50;9.80;;;;;;5070872;28;19919;-71
2024/03/26 10:32:35;;;;;;;;;;;27.50;8.60;;;;;;5072638;28;19927;-75
2024/03/26 10:35:03;;;;;;;;;;;27.70;8.90;;;;;;5071258;28;19934;-70
2024/03/26 10:37:30;;;;;;;;;;;28.00;9.40;;;;;;5070891;28;19921;-70
2024/03/26 10:40:04;;;;;;;;;;;28.10;8.50;;;;;;5071034;28;19919;-75
2024/03/26 10:42:33;;;;;;;;;;;28.10;8.60;;;;;;5070817;28;19920;-74
2024/03/26 10:45:00;;;;;;;;;;;28.30;9.40;;;;;;5072274;28;19947;-75
2024/03/26 10:47:26;;;;;;;;;;;28.40;7.70;;;;;;5071015;28;19967;-74
2024/03/26 10:49:52;;;;;;;;;;;28.50;8.40;;;;;;5071066;28;19919;-75
2024/03/26 10:52:37;;;;;;;;;;;28.50;9.00;;;;;;5071874;28;20263;-71
2024/03/26 10:55:04;;;;;;;;;;;27.80;9.20;;;;;;5070566;28;19935;-71
2024/03/26 10:57:30;;;;;;;;;;;27.00;9.00;;;;;;5070559;28;19974;-75
2024/03/26 10:59:56;;;;;;;;;;;26.70;10.00;;;;;;5072067;28;20340;-75
2024/03/26 11:02:23;;;;;;;;;;;26.50;10.00;;;;;;5070262;28;19927;-70
2024/03/26 11:04:49;;;;;;;;;;;26.40;10.60;;;;;;5053923;28;20332;-70
2024/03/26 11:07:15;;;;;;;;;;;26.30;11.40;;;;;;5070596;28;19952;-70
2024/03/26 11:09:41;;;;;;;;;;;26.40;11.40;;;;;;5072252;28;19912;-73
2024/03/26 11:12:25;;;;;;;;;;;26.10;10.90;;;;;;5071408;28;20344;-71
2024/03/26 11:14:51;;;;;;;;;;;26.10;10.20;;;;;;5071651;28;20325;-71
2024/03/26 11:17:18;;;;;;;;;;;26.30;12.10;;;;;;5071573;28;19935;-75
2024/03/26 11:19:43;;;;;;;;;;;26.50;11.50;;;;;;5070555;28;19912;-70
2024/03/26 11:22:11;;;;;;;;;;;27.00;11.00;;;;;;5070050;28;20015;-70
2024/03/26 11:24:37;;;;;;;;;;;27.40;11.10;;;;;;5071511;28;20061;-75
2024/03/26 11:27:04;;;;;;;;;;;28.10;10.00;;;;;;5070355;28;20007;-74
2024/03/26 11:29:31;;;;;;;;;;;28.50;9.10;;;;;;5070456;28;19970;-70
2024/03/26 11:31:59;;;;;;;;;;;28.90;9.10;;;;;;5069749;28;20502;-74
2024/03/26 11:34:26;;;;;;;;;;;29.20;8.90;;;;;;5070098;28;19943;-75
2024/03/26 11:36:54;;;;;;;;;;;29.50;9.30;;;;;;5070358;28;20350;-75
2024/03/26 11:39:22;;;;;;;;;;;29.90;8.60;;;;;;5070222;28;19920;-75
2024/03/26 11:41:50;;;;;;;;;;;30.20;9.50;;;;;;5071095;28;19920;-71
2024/03/26 11:44:15;;;;;;;;;;;30.50;9.50;;;;;;5070034;28;19916;-71
2024/03/26 11:46:44;;;;;;;;;;;30.70;9.40;;;;;;5071536;28;19926;-71
2024/03/26 11:49:10;;;;;;;;;;;30.80;8.70;;;;;;5070286;28;19920;-74
2024/03/26 11:51:36;;;;;;;;;;;30.80;7.90;;;;;;5071157;28;19920;-72
2024/03/26 11:54:02;;;;;;;;;;;30.70;7.80;;;;;;5071223;28;19927;-71
2024/03/26 11:56:29;;;;;;;;;;;30.80;8.20;;;;;;5070094;28;19963;-74
2024/03/26 11:58:55;;;;;;;;;;;30.60;8.50;;;;;;5069977;28;19932;-75
2024/03/26 12:01:21;;;;;;;;;;;30.50;7.90;;;;;;5069420;28;20390;-74
2024/03/26 12:04:05;;;;;;;;;;;30.40;8.40;;;;;;5071315;28;20401;-75
2024/03/26 12:06:32;;;;;;;;;;;29.90;9.20;;;;;;5071201;28;19951;-74
2024/03/26 12:08:59;;;;;;;;;;;29.40;9.10;;;;;;5071272;28;19955;-71
2024/03/26 12:11:28;;;;;;;;;;;29.00;9.40;;;;;;5069316;28;20340;-71
2024/03/26 12:13:54;;;;;;;;;;;28.40;9.00;;;;;;5053470;28;19916;-75
2024/03/26 12:16:40;;;;;;;;;;;27.80;9.50;;;;;;5070191;28;19912;-70
2024/03/26 12:19:06;;;;;;;;;;;27.30;9.40;;;;;;5071115;28;19920;-71
2024/03/26 12:21:32;;;;;;;;;;;26.90;10.40;;;;;;5069446;28;19995;-74
2024/03/26 12:23:58;;;;;;;;;;;26.30;8.80;;;;;;5069769;28;20285;-71
2024/03/26 12:26:24;;;;;;;;;;;26.10;10.30;;;;;;5052925;28;19917;-70
2024/03/26 12:28:50;;;;;;;;;;;25.70;11.80;;;;;;5069752;28;19924;-75
2024/03/26 12:31:17;;;;;;;;;;;25.10;12.30;;;;;;5069359;28;19920;-70
2024/03/26 12:33:43;;;;;;;;;;;24.70;13.60;;;;;;5069963;28;20186;-70
2024/03/26 12:36:09;;;;;;;;;;;24.30;14.00;;;;;;5070973;28;20327;-75
2024/03/26 12:38:39;;;;;;;;;;;24.20;14.40;;;;;;5069686;28;20124;-70
2024/03/26 12:41:05;;;;;;;;;;;23.80;14.50;;;;;;5070667;28;19927;-76
2024/03/26 12:43:33;;;;;;;;;;;23.50;15.00;;;;;;5069749;28;19974;-71
2024/03/26 12:46:00;;;;;;;;;;;23.20;15.80;;;;;;5069606;28;19912;-70
2024/03/26 12:48:26;;;;;;;;;;;23.00;15.40;;;;;;5069962;28;19924;-75
2024/03/26 12:50:52;;;;;;;;;;;22.70;15.30;;;;;;5054751;28;19962;-70
2024/03/26 12:53:18;;;;;;;;;;;22.60;16.20;;;;;;5073207;28;19921;-70
2024/03/26 12:55:44;;;;;;;;;;;22.20;16.60;;;;;;5072941;28;19912;-71
2024/03/26 12:58:10;;;;;;;;;;;22.00;17.00;;;;;;5056045;28;19931;-75
2024/03/26 13:00:36;;;;;;;;;;;21.80;16.80;;;;;;5072393;28;19924;-75
2024/03/26 13:03:03;;;;;;;;;;;21.50;16.70;;;;;;5073080;28;19920;-70
2024/03/26 13:05:29;;;;;;;;;;;21.40;18.20;;;;;;5072752;28;20292;-75
2024/03/26 13:07:55;;;;;;;;;;;21.30;18.80;;;;;;5072705;28;20015;-70
2024/03/26 13:10:20;;;;;;;;;;;21.20;17.80;;;;;;5073515;28;20283;-70
2024/03/26 13:12:47;;;;;;;;;;;21.10;17.80;;;;;;5072800;28;19939;-70
2024/03/26 13:15:13;;;;;;;;;;;20.90;16.90;;;;;;5072737;28;20374;-70
2024/03/26 13:17:40;;;;;;;;;;;20.80;16.30;;;;;;5074017;28;19916;-70
2024/03/26 13:20:08;;;;;;;;;;;20.70;16.70;;;;;;5072053;28;19924;-70
2024/03/26 13:22:35;;;;;;;;;;;20.60;16.90;;;;;;5073895;28;20025;-75
2024/03/26 13:25:01;;;;;;;;;;;20.50;17.90;;;;;;5073633;28;19920;-70
2024/03/26 13:27:27;;;;;;;;;;;20.30;17.60;;;;;;5055614;28;19927;-70
2024/03/26 13:29:53;;;;;;;;;;;20.20;18.80;;;;;;5072559;28;20327;-75
2024/03/26 13:32:19;;;;;;;;;;;20.00;18.00;;;;;;5071889;28;19923;-75
2024/03/26 13:34:45;;;;;;;;;;;19.90;20.20;;;;;;5073611;28;19920;-75
2024/03/26 13:37:10;;;;;;;;;;;19.80;21.30;;;;;;5072270;28;20341;-69
2024/03/26 13:39:36;;;;;;;;;;;19.80;20.70;;;;;;5055620;28;20003;-70
2024/03/26 13:42:02;;;;;;;;;;;19.60;19.70;;;;;;5071669;28;20382;-75
2024/03/26 13:44:28;;;;;;;;;;;19.60;20.20;;;;;;5073499;28;19995;-75
2024/03/26 13:46:54;;;;;;;;;;;19.60;19.40;;;;;;5073423;28;19916;-76
2024/03/26 13:49:20;;;;;;;;;;;19.50;20.20;;;;;;5073473;28;20023;-70
2024/03/26 13:51:46;;;;;;;;;;;19.50;20.00;;;;;;5055213;28;19916;-70
2024/03/26 13:54:12;;;;;;;;;;;19.30;20.90;;;;;;5071900;28;19965;-70
2024/03/26 13:56:38;;;;;;;;;;;19.20;20.00;;;;;;5072016;28;19925;-76
2024/03/26 13:59:03;;;;;;;;;;;19.20;20.20;;;;;;5071896;28;20011;-70
2024/03/26 14:01:30;;;;;;;;;;;19.20;21.00;;;;;;5071820;28;20011;-70
2024/03/26 14:03:56;;;;;;;;;;;19.10;21.30;;;;;;5071845;28;19962;-75
2024/03/26 14:06:21;;;;;;;;;;;19.10;21.20;;;;;;5073075;28;19912;-70
2024/03/26 14:08:47;;;;;;;;;;;19.20;21.90;;;;;;5072957;28;20457;-70
2024/03/26 14:11:13;;;;;;;;;;;19.20;21.60;;;;;;5072792;28;19923;-71
2024/03/26 14:13:39;;;;;;;;;;;19.20;22.00;;;;;;5071552;28;19916;-70
2024/03/26 14:16:06;;;;;;;;;;;19.30;22.70;;;;;;5071650;28;20301;-75
2024/03/26 14:18:32;;;;;;;;;;;19.30;22.20;;;;;;5054862;28;20258;-76
2024/03/26 14:21:17;;;;;;;;;;;19.20;21.60;;;;;;5072260;28;19916;-75